sensor_id;sensor_type;location;lat;lon;timestamp;temperature;humidity
21648;DHT22;10985;54.182;7.890;2023-04-08T00:02:19;7.20;99.90
21648;DHT22;10985;54.182;7.890;2023-04-08T00:04:44;7.20;99.90
21648;DHT22;10985;54.182;7.890;2023-04-08T00:07:10;7.20;99.90
21648;DHT22;10985;54.182;7.890;2023-04-08T00:09:35;7.10;99.90
21648;DHT22;10985;54.182;7.890;2023-04-08T00:12:01;7.10;99.90
21648;DHT22;10985;54.182;7.890;2023-04-08T00:14:27;7.10;99.90
21648;DHT22;10985;54.182;7.890;2023-04-08T00:16:52;7.10;99.90
21648;DHT22;10985;54.182;7.890;2023-04-08T00:19:18;7.10;99.90
21648;DHT22;10985;54.182;7.890;2023-04-08T00:21:44;7.20;99.90
21648;DHT22;10985;54.182;7.890;2023-04-08T00:24:09;7.20;99.90
21648;DHT22;10985;54.182;7.890;2023-04-08T00:26:35;7.10;99.90
21648;DHT22;10985;54.182;7.890;2023-04-08T00:29:00;7.20;99.90
21648;DHT22;10985;54.182;7.890;2023-04-08T00:31:26;7.20;99.90
21648;DHT22;10985;54.182;7.890;2023-04-08T00:33:51;7.20;99.90
21648;DHT22;10985;54.182;7.890;2023-04-08T00:36:17;7.20;99.90
21648;DHT22;10985;54.182;7.890;2023-04-08T00:38:43;7.20;99.90
21648;DHT22;10985;54.182;7.890;2023-04-08T00:41:09;7.20;99.90
21648;DHT22;10985;54.182;7.890;2023-04-08T00:43:34;7.20;99.90
21648;DHT22;10985;54.182;7.890;2023-04-08T00:46:00;7.20;99.90
21648;DHT22;10985;54.182;7.890;2023-04-08T00:48:25;7.20;99.90
21648;DHT22;10985;54.182;7.890;2023-04-08T00:50:51;7.20;99.90
21648;DHT22;10985;54.182;7.890;2023-04-08T00:53:18;7.30;99.90
21648;DHT22;10985;54.182;7.890;2023-04-08T00:55:44;7.20;99.90
21648;DHT22;10985;54.182;7.890;2023-04-08T00:58:10;7.30;99.90
21648;DHT22;10985;54.182;7.890;2023-04-08T01:00:37;7.20;99.90
21648;DHT22;10985;54.182;7.890;2023-04-08T01:06:01;7.20;99.90
21648;DHT22;10985;54.182;7.890;2023-04-08T01:08:31;7.20;99.90
21648;DHT22;10985;54.182;7.890;2023-04-08T01:11:00;7.20;99.90
21648;DHT22;10985;54.182;7.890;2023-04-08T01:13:29;7.20;99.90
21648;DHT22;10985;54.182;7.890;2023-04-08T01:15:55;7.20;99.90
21648;DHT22;10985;54.182;7.890;2023-04-08T01:18:21;7.20;99.90
21648;DHT22;10985;54.182;7.890;2023-04-08T01:20:49;7.10;99.90
21648;DHT22;10985;54.182;7.890;2023-04-08T01:23:39;7.10;99.90
21648;DHT22;10985;54.182;7.890;2023-04-08T01:26:10;7.00;99.90
21648;DHT22;10985;54.182;7.890;2023-04-08T01:28:37;7.00;99.90
21648;DHT22;10985;54.182;7.890;2023-04-08T01:31:03;7.00;99.90
21648;DHT22;10985;54.182;7.890;2023-04-08T01:33:30;7.00;99.90
21648;DHT22;10985;54.182;7.890;2023-04-08T01:35:56;6.90;99.90
21648;DHT22;10985;54.182;7.890;2023-04-08T01:38:24;6.90;99.90
21648;DHT22;10985;54.182;7.890;2023-04-08T01:40:52;6.90;99.90
21648;DHT22;10985;54.182;7.890;2023-04-08T01:43:19;6.90;99.90
21648;DHT22;10985;54.182;7.890;2023-04-08T01:45:47;6.80;99.90
21648;DHT22;10985;54.182;7.890;2023-04-08T01:48:14;6.80;99.90
21648;DHT22;10985;54.182;7.890;2023-04-08T01:50:43;6.90;99.90
21648;DHT22;10985;54.182;7.890;2023-04-08T01:53:11;6.90;99.90
21648;DHT22;10985;54.182;7.890;2023-04-08T01:55:41;6.90;99.90
21648;DHT22;10985;54.182;7.890;2023-04-08T01:58:10;6.90;99.90
21648;DHT22;10985;54.182;7.890;2023-04-08T02:00:38;6.90;99.90
21648;DHT22;10985;54.182;7.890;2023-04-08T02:03:05;6.90;99.90
21648;DHT22;10985;54.182;7.890;2023-04-08T02:05:31;6.90;99.90
21648;DHT22;10985;54.182;7.890;2023-04-08T02:07:57;6.90;99.90
21648;DHT22;10985;54.182;7.890;2023-04-08T02:10:22;7.00;99.90
21648;DHT22;10985;54.182;7.890;2023-04-08T02:12:47;7.00;99.90
21648;DHT22;10985;54.182;7.890;2023-04-08T02:15:14;7.00;99.90
21648;DHT22;10985;54.182;7.890;2023-04-08T02:17:47;7.00;99.90
21648;DHT22;10985;54.182;7.890;2023-04-08T02:20:25;7.00;99.90
21648;DHT22;10985;54.182;7.890;2023-04-08T02:25:28;7.00;99.90
21648;DHT22;10985;54.182;7.890;2023-04-08T02:27:54;7.10;99.90
21648;DHT22;10985;54.182;7.890;2023-04-08T02:30:21;7.10;99.90
21648;DHT22;10985;54.182;7.890;2023-04-08T02:32:49;7.10;99.90
21648;DHT22;10985;54.182;7.890;2023-04-08T02:35:16;7.10;99.90
21648;DHT22;10985;54.182;7.890;2023-04-08T02:37:43;7.10;99.90
21648;DHT22;10985;54.182;7.890;2023-04-08T02:40:23;7.10;99.90
21648;DHT22;10985;54.182;7.890;2023-04-08T02:42:49;7.10;99.90
21648;DHT22;10985;54.182;7.890;2023-04-08T02:45:14;7.10;99.90
21648;DHT22;10985;54.182;7.890;2023-04-08T02:47:40;7.10;99.90
21648;DHT22;10985;54.182;7.890;2023-04-08T02:50:06;7.10;99.90
21648;DHT22;10985;54.182;7.890;2023-04-08T02:52:31;7.10;99.90
21648;DHT22;10985;54.182;7.890;2023-04-08T02:54:57;7.10;99.90
21648;DHT22;10985;54.182;7.890;2023-04-08T02:57:22;7.20;99.90
21648;DHT22;10985;54.182;7.890;2023-04-08T02:59:48;7.20;99.90
21648;DHT22;10985;54.182;7.890;2023-04-08T03:02:13;7.10;99.90
21648;DHT22;10985;54.182;7.890;2023-04-08T03:04:39;7.20;99.90
21648;DHT22;10985;54.182;7.890;2023-04-08T03:07:04;7.20;99.90
21648;DHT22;10985;54.182;7.890;2023-04-08T03:09:30;7.20;99.90
21648;DHT22;10985;54.182;7.890;2023-04-08T03:11:56;7.20;99.90
21648;DHT22;10985;54.182;7.890;2023-04-08T03:14:21;7.20;99.90
21648;DHT22;10985;54.182;7.890;2023-04-08T03:16:47;7.20;99.90
21648;DHT22;10985;54.182;7.890;2023-04-08T03:19:13;7.20;99.90
21648;DHT22;10985;54.182;7.890;2023-04-08T03:21:38;7.20;99.90
21648;DHT22;10985;54.182;7.890;2023-04-08T03:24:04;7.20;99.90
21648;DHT22;10985;54.182;7.890;2023-04-08T03:26:29;7.20;99.90
21648;DHT22;10985;54.182;7.890;2023-04-08T03:28:55;7.20;99.90
21648;DHT22;10985;54.182;7.890;2023-04-08T03:31:20;7.20;99.90
21648;DHT22;10985;54.182;7.890;2023-04-08T03:33:46;7.20;99.90
21648;DHT22;10985;54.182;7.890;2023-04-08T03:36:12;7.20;99.90
21648;DHT22;10985;54.182;7.890;2023-04-08T03:38:37;7.20;99.90
21648;DHT22;10985;54.182;7.890;2023-04-08T03:41:03;7.20;99.90
21648;DHT22;10985;54.182;7.890;2023-04-08T03:43:28;7.20;99.90
21648;DHT22;10985;54.182;7.890;2023-04-08T03:45:54;7.20;99.90
21648;DHT22;10985;54.182;7.890;2023-04-08T03:48:20;7.20;99.90
21648;DHT22;10985;54.182;7.890;2023-04-08T03:50:46;7.20;99.90
21648;DHT22;10985;54.182;7.890;2023-04-08T03:53:11;7.20;99.90
21648;DHT22;10985;54.182;7.890;2023-04-08T03:55:37;7.30;99.90
21648;DHT22;10985;54.182;7.890;2023-04-08T03:58:03;7.20;99.90
21648;DHT22;10985;54.182;7.890;2023-04-08T04:00:29;7.20;99.90
21648;DHT22;10985;54.182;7.890;2023-04-08T04:02:54;7.20;99.90
21648;DHT22;10985;54.182;7.890;2023-04-08T04:05:20;7.20;99.90
21648;DHT22;10985;54.182;7.890;2023-04-08T04:07:46;7.20;99.90
21648;DHT22;10985;54.182;7.890;2023-04-08T04:10:11;7.20;99.90
21648;DHT22;10985;54.182;7.890;2023-04-08T04:12:37;7.20;99.90
21648;DHT22;10985;54.182;7.890;2023-04-08T04:15:03;7.20;99.90
21648;DHT22;10985;54.182;7.890;2023-04-08T04:17:28;7.20;99.90
21648;DHT22;10985;54.182;7.890;2023-04-08T04:19:54;7.20;99.90
21648;DHT22;10985;54.182;7.890;2023-04-08T04:22:19;7.20;99.90
21648;DHT22;10985;54.182;7.890;2023-04-08T04:24:48;7.20;99.90
21648;DHT22;10985;54.182;7.890;2023-04-08T04:27:14;7.20;99.90
21648;DHT22;10985;54.182;7.890;2023-04-08T04:29:42;7.30;99.90
21648;DHT22;10985;54.182;7.890;2023-04-08T04:32:07;7.30;99.90
21648;DHT22;10985;54.182;7.890;2023-04-08T04:34:33;7.20;99.90
21648;DHT22;10985;54.182;7.890;2023-04-08T04:36:58;7.30;99.90
21648;DHT22;10985;54.182;7.890;2023-04-08T04:39:24;7.30;99.90
21648;DHT22;10985;54.182;7.890;2023-04-08T04:41:49;7.30;99.90
21648;DHT22;10985;54.182;7.890;2023-04-08T04:44:15;7.30;99.90
21648;DHT22;10985;54.182;7.890;2023-04-08T04:46:41;7.30;99.90
21648;DHT22;10985;54.182;7.890;2023-04-08T04:49:06;7.30;99.90
21648;DHT22;10985;54.182;7.890;2023-04-08T04:51:32;7.30;99.90
21648;DHT22;10985;54.182;7.890;2023-04-08T04:53:58;7.30;99.90
21648;DHT22;10985;54.182;7.890;2023-04-08T04:56:23;7.30;99.90
21648;DHT22;10985;54.182;7.890;2023-04-08T04:58:50;7.30;99.90
21648;DHT22;10985;54.182;7.890;2023-04-08T05:01:16;7.30;99.90
21648;DHT22;10985;54.182;7.890;2023-04-08T05:03:41;7.30;99.90
21648;DHT22;10985;54.182;7.890;2023-04-08T05:06:07;7.30;99.90
21648;DHT22;10985;54.182;7.890;2023-04-08T05:08:32;7.30;99.90
21648;DHT22;10985;54.182;7.890;2023-04-08T05:10:58;7.30;99.90
21648;DHT22;10985;54.182;7.890;2023-04-08T05:13:29;7.30;99.90
21648;DHT22;10985;54.182;7.890;2023-04-08T05:15:54;7.30;99.90
21648;DHT22;10985;54.182;7.890;2023-04-08T05:18:20;7.30;99.90
21648;DHT22;10985;54.182;7.890;2023-04-08T05:20:46;7.30;99.90
21648;DHT22;10985;54.182;7.890;2023-04-08T05:23:11;7.30;99.90
21648;DHT22;10985;54.182;7.890;2023-04-08T05:25:37;7.30;99.90
21648;DHT22;10985;54.182;7.890;2023-04-08T05:28:03;7.40;99.90
21648;DHT22;10985;54.182;7.890;2023-04-08T05:30:28;7.40;99.90
21648;DHT22;10985;54.182;7.890;2023-04-08T05:32:54;7.40;99.90
21648;DHT22;10985;54.182;7.890;2023-04-08T05:35:19;7.40;99.90
21648;DHT22;10985;54.182;7.890;2023-04-08T05:37:45;7.40;99.90
21648;DHT22;10985;54.182;7.890;2023-04-08T05:40:11;7.40;99.90
21648;DHT22;10985;54.182;7.890;2023-04-08T05:42:36;7.40;99.90
21648;DHT22;10985;54.182;7.890;2023-04-08T05:45:02;7.40;99.90
21648;DHT22;10985;54.182;7.890;2023-04-08T05:47:27;7.40;99.90
21648;DHT22;10985;54.182;7.890;2023-04-08T05:49:53;7.40;99.90
21648;DHT22;10985;54.182;7.890;2023-04-08T05:52:18;7.40;99.90
21648;DHT22;10985;54.182;7.890;2023-04-08T05:54:44;7.50;99.90
21648;DHT22;10985;54.182;7.890;2023-04-08T05:57:10;7.50;99.90
21648;DHT22;10985;54.182;7.890;2023-04-08T05:59:35;7.50;99.90
21648;DHT22;10985;54.182;7.890;2023-04-08T06:02:01;7.50;99.90
21648;DHT22;10985;54.182;7.890;2023-04-08T06:04:26;7.40;99.90
21648;DHT22;10985;54.182;7.890;2023-04-08T06:06:52;7.50;99.90
21648;DHT22;10985;54.182;7.890;2023-04-08T06:09:17;7.50;99.90
21648;DHT22;10985;54.182;7.890;2023-04-08T06:11:43;7.50;99.90
21648;DHT22;10985;54.182;7.890;2023-04-08T06:14:11;7.50;99.90
21648;DHT22;10985;54.182;7.890;2023-04-08T06:16:37;7.50;99.90
21648;DHT22;10985;54.182;7.890;2023-04-08T06:19:02;7.50;99.90
21648;DHT22;10985;54.182;7.890;2023-04-08T06:21:28;7.50;99.90
21648;DHT22;10985;54.182;7.890;2023-04-08T06:23:53;7.50;99.90
21648;DHT22;10985;54.182;7.890;2023-04-08T06:26:19;7.60;99.90
21648;DHT22;10985;54.182;7.890;2023-04-08T06:28:45;7.60;99.90
21648;DHT22;10985;54.182;7.890;2023-04-08T06:31:10;7.60;99.90
21648;DHT22;10985;54.182;7.890;2023-04-08T06:33:36;7.60;99.90
21648;DHT22;10985;54.182;7.890;2023-04-08T06:36:05;7.60;99.90
21648;DHT22;10985;54.182;7.890;2023-04-08T06:38:32;7.70;99.90
21648;DHT22;10985;54.182;7.890;2023-04-08T06:41:07;7.70;99.90
21648;DHT22;10985;54.182;7.890;2023-04-08T06:43:33;7.70;99.90
21648;DHT22;10985;54.182;7.890;2023-04-08T06:45:59;7.80;99.90
21648;DHT22;10985;54.182;7.890;2023-04-08T06:48:25;7.80;99.90
21648;DHT22;10985;54.182;7.890;2023-04-08T06:50:59;7.80;99.90
21648;DHT22;10985;54.182;7.890;2023-04-08T06:53:26;7.90;99.90
21648;DHT22;10985;54.182;7.890;2023-04-08T06:55:53;7.90;99.90
21648;DHT22;10985;54.182;7.890;2023-04-08T06:58:19;8.00;99.90
21648;DHT22;10985;54.182;7.890;2023-04-08T07:00:44;8.10;99.90
21648;DHT22;10985;54.182;7.890;2023-04-08T07:03:10;8.10;99.90
21648;DHT22;10985;54.182;7.890;2023-04-08T07:05:36;8.10;99.90
21648;DHT22;10985;54.182;7.890;2023-04-08T07:08:03;8.20;99.90
21648;DHT22;10985;54.182;7.890;2023-04-08T07:10:28;8.20;99.90
21648;DHT22;10985;54.182;7.890;2023-04-08T07:12:54;8.20;99.90
21648;DHT22;10985;54.182;7.890;2023-04-08T07:15:19;8.30;99.90
21648;DHT22;10985;54.182;7.890;2023-04-08T07:17:45;8.30;99.90
21648;DHT22;10985;54.182;7.890;2023-04-08T07:20:12;8.30;99.90
21648;DHT22;10985;54.182;7.890;2023-04-08T07:22:38;8.40;99.90
21648;DHT22;10985;54.182;7.890;2023-04-08T07:25:04;8.40;99.90
21648;DHT22;10985;54.182;7.890;2023-04-08T07:27:30;8.40;99.90
21648;DHT22;10985;54.182;7.890;2023-04-08T07:29:56;8.50;99.90
21648;DHT22;10985;54.182;7.890;2023-04-08T07:32:22;8.60;99.90
21648;DHT22;10985;54.182;7.890;2023-04-08T07:34:48;8.60;99.90
21648;DHT22;10985;54.182;7.890;2023-04-08T07:37:13;8.70;99.90
21648;DHT22;10985;54.182;7.890;2023-04-08T07:39:38;8.80;99.90
21648;DHT22;10985;54.182;7.890;2023-04-08T07:42:04;8.80;99.90
21648;DHT22;10985;54.182;7.890;2023-04-08T07:44:30;8.90;99.90
21648;DHT22;10985;54.182;7.890;2023-04-08T07:46:55;9.00;99.90
21648;DHT22;10985;54.182;7.890;2023-04-08T07:49:21;9.10;99.90
21648;DHT22;10985;54.182;7.890;2023-04-08T07:51:46;9.10;99.90
21648;DHT22;10985;54.182;7.890;2023-04-08T07:54:12;9.20;99.90
21648;DHT22;10985;54.182;7.890;2023-04-08T07:56:42;9.30;99.90
21648;DHT22;10985;54.182;7.890;2023-04-08T07:59:09;9.40;99.90
21648;DHT22;10985;54.182;7.890;2023-04-08T08:01:34;9.50;99.90
21648;DHT22;10985;54.182;7.890;2023-04-08T08:04:00;9.50;99.90
21648;DHT22;10985;54.182;7.890;2023-04-08T08:06:26;9.60;99.90
21648;DHT22;10985;54.182;7.890;2023-04-08T08:08:57;9.80;99.90
21648;DHT22;10985;54.182;7.890;2023-04-08T08:11:22;9.90;99.90
21648;DHT22;10985;54.182;7.890;2023-04-08T08:13:48;10.00;99.90
21648;DHT22;10985;54.182;7.890;2023-04-08T08:16:13;10.00;99.90
21648;DHT22;10985;54.182;7.890;2023-04-08T08:18:39;10.10;99.90
21648;DHT22;10985;54.182;7.890;2023-04-08T08:21:05;10.10;99.90
21648;DHT22;10985;54.182;7.890;2023-04-08T08:23:31;10.20;99.90
21648;DHT22;10985;54.182;7.890;2023-04-08T08:26:01;10.20;99.90
21648;DHT22;10985;54.182;7.890;2023-04-08T08:28:27;10.20;99.90
21648;DHT22;10985;54.182;7.890;2023-04-08T08:30:53;10.30;99.90
21648;DHT22;10985;54.182;7.890;2023-04-08T08:33:18;10.30;99.90
21648;DHT22;10985;54.182;7.890;2023-04-08T08:35:44;10.40;99.90
21648;DHT22;10985;54.182;7.890;2023-04-08T08:38:09;10.40;99.90
21648;DHT22;10985;54.182;7.890;2023-04-08T08:40:35;10.50;99.90
21648;DHT22;10985;54.182;7.890;2023-04-08T08:43:01;10.60;99.90
21648;DHT22;10985;54.182;7.890;2023-04-08T08:45:26;10.60;99.90
21648;DHT22;10985;54.182;7.890;2023-04-08T08:47:52;10.70;99.90
21648;DHT22;10985;54.182;7.890;2023-04-08T08:50:18;10.80;99.90
21648;DHT22;10985;54.182;7.890;2023-04-08T08:52:50;10.90;99.90
21648;DHT22;10985;54.182;7.890;2023-04-08T08:55:18;11.10;99.90
21648;DHT22;10985;54.182;7.890;2023-04-08T08:57:44;11.20;99.90
21648;DHT22;10985;54.182;7.890;2023-04-08T09:00:11;11.40;99.90
21648;DHT22;10985;54.182;7.890;2023-04-08T09:02:37;11.50;99.90
21648;DHT22;10985;54.182;7.890;2023-04-08T09:05:03;11.60;99.90
21648;DHT22;10985;54.182;7.890;2023-04-08T09:07:38;11.80;99.90
21648;DHT22;10985;54.182;7.890;2023-04-08T09:10:05;11.90;99.90
21648;DHT22;10985;54.182;7.890;2023-04-08T09:12:31;11.90;99.90
21648;DHT22;10985;54.182;7.890;2023-04-08T09:15:09;12.10;99.90
21648;DHT22;10985;54.182;7.890;2023-04-08T09:17:36;12.10;99.90
21648;DHT22;10985;54.182;7.890;2023-04-08T09:25:28;12.30;99.90
21648;DHT22;10985;54.182;7.890;2023-04-08T09:27:55;12.40;99.90
21648;DHT22;10985;54.182;7.890;2023-04-08T09:30:22;12.30;99.90
21648;DHT22;10985;54.182;7.890;2023-04-08T09:32:56;12.30;99.90
21648;DHT22;10985;54.182;7.890;2023-04-08T09:35:22;12.20;99.90
21648;DHT22;10985;54.182;7.890;2023-04-08T09:37:49;12.20;99.90
21648;DHT22;10985;54.182;7.890;2023-04-08T09:40:15;12.20;99.90
21648;DHT22;10985;54.182;7.890;2023-04-08T09:42:46;12.20;99.90
21648;DHT22;10985;54.182;7.890;2023-04-08T09:45:17;12.20;99.90
21648;DHT22;10985;54.182;7.890;2023-04-08T09:48:38;12.10;99.90
21648;DHT22;10985;54.182;7.890;2023-04-08T09:50:50;12.10;99.90
21648;DHT22;10985;54.182;7.890;2023-04-08T09:53:24;12.10;99.90
21648;DHT22;10985;54.182;7.890;2023-04-08T09:55:54;12.10;99.90
21648;DHT22;10985;54.182;7.890;2023-04-08T09:58:28;12.10;99.90
21648;DHT22;10985;54.182;7.890;2023-04-08T10:00:56;12.10;99.90
21648;DHT22;10985;54.182;7.890;2023-04-08T10:03:33;12.10;99.90
21648;DHT22;10985;54.182;7.890;2023-04-08T10:06:01;12.10;99.90
21648;DHT22;10985;54.182;7.890;2023-04-08T10:08:28;12.20;99.90
21648;DHT22;10985;54.182;7.890;2023-04-08T10:10:55;12.30;99.90
21648;DHT22;10985;54.182;7.890;2023-04-08T10:13:21;12.40;99.90
21648;DHT22;10985;54.182;7.890;2023-04-08T10:15:46;12.60;99.90
21648;DHT22;10985;54.182;7.890;2023-04-08T10:23:09;13.20;99.90
21648;DHT22;10985;54.182;7.890;2023-04-08T10:25:41;13.40;99.90
21648;DHT22;10985;54.182;7.890;2023-04-08T10:30:39;14.00;99.90
21648;DHT22;10985;54.182;7.890;2023-04-08T10:33:16;14.30;99.90
21648;DHT22;10985;54.182;7.890;2023-04-08T10:35:53;14.80;99.90
21648;DHT22;10985;54.182;7.890;2023-04-08T10:38:19;15.30;99.90
21648;DHT22;10985;54.182;7.890;2023-04-08T10:40:47;15.70;99.90
21648;DHT22;10985;54.182;7.890;2023-04-08T10:43:13;16.00;99.90
21648;DHT22;10985;54.182;7.890;2023-04-08T10:45:39;16.10;99.90
21648;DHT22;10985;54.182;7.890;2023-04-08T10:50:43;16.70;99.90
21648;DHT22;10985;54.182;7.890;2023-04-08T10:53:09;16.90;99.90
21648;DHT22;10985;54.182;7.890;2023-04-08T10:55:35;17.10;99.90
21648;DHT22;10985;54.182;7.890;2023-04-08T10:58:08;17.20;99.90
21648;DHT22;10985;54.182;7.890;2023-04-08T11:00:38;17.30;99.90
21648;DHT22;10985;54.182;7.890;2023-04-08T11:03:08;17.30;99.90
21648;DHT22;10985;54.182;7.890;2023-04-08T11:05:35;17.40;99.90
21648;DHT22;10985;54.182;7.890;2023-04-08T11:08:04;17.40;99.90
21648;DHT22;10985;54.182;7.890;2023-04-08T11:10:32;17.40;99.90
21648;DHT22;10985;54.182;7.890;2023-04-08T11:13:01;17.40;99.90
21648;DHT22;10985;54.182;7.890;2023-04-08T11:15:29;17.40;99.90
21648;DHT22;10985;54.182;7.890;2023-04-08T11:17:55;17.30;99.90
21648;DHT22;10985;54.182;7.890;2023-04-08T11:20:21;17.30;99.90
21648;DHT22;10985;54.182;7.890;2023-04-08T11:22:47;17.30;99.90
21648;DHT22;10985;54.182;7.890;2023-04-08T11:25:14;17.40;99.90
21648;DHT22;10985;54.182;7.890;2023-04-08T11:27:40;17.50;99.90
21648;DHT22;10985;54.182;7.890;2023-04-08T11:30:06;17.60;99.90
21648;DHT22;10985;54.182;7.890;2023-04-08T11:32:34;17.70;99.90
21648;DHT22;10985;54.182;7.890;2023-04-08T11:35:00;17.70;99.90
21648;DHT22;10985;54.182;7.890;2023-04-08T11:37:36;17.80;99.90
21648;DHT22;10985;54.182;7.890;2023-04-08T11:40:08;17.90;99.90
21648;DHT22;10985;54.182;7.890;2023-04-08T11:42:34;17.90;99.90
21648;DHT22;10985;54.182;7.890;2023-04-08T11:45:00;18.00;99.90
21648;DHT22;10985;54.182;7.890;2023-04-08T11:47:34;18.00;99.90
21648;DHT22;10985;54.182;7.890;2023-04-08T11:50:01;18.10;99.90
21648;DHT22;10985;54.182;7.890;2023-04-08T11:52:46;18.20;99.90
21648;DHT22;10985;54.182;7.890;2023-04-08T11:57:47;18.50;99.90
21648;DHT22;10985;54.182;7.890;2023-04-08T12:00:12;18.80;99.90
21648;DHT22;10985;54.182;7.890;2023-04-08T12:02:39;18.90;99.90
21648;DHT22;10985;54.182;7.890;2023-04-08T12:05:05;19.10;99.90
21648;DHT22;10985;54.182;7.890;2023-04-08T12:07:31;19.30;99.90
21648;DHT22;10985;54.182;7.890;2023-04-08T12:09:56;19.30;99.90
21648;DHT22;10985;54.182;7.890;2023-04-08T12:12:22;19.40;99.90
21648;DHT22;10985;54.182;7.890;2023-04-08T12:14:48;19.50;99.90
21648;DHT22;10985;54.182;7.890;2023-04-08T12:17:13;19.50;99.90
21648;DHT22;10985;54.182;7.890;2023-04-08T12:19:39;19.50;99.90
21648;DHT22;10985;54.182;7.890;2023-04-08T12:22:05;19.50;99.90
21648;DHT22;10985;54.182;7.890;2023-04-08T12:24:31;19.50;99.90
21648;DHT22;10985;54.182;7.890;2023-04-08T12:26:56;19.40;99.90
21648;DHT22;10985;54.182;7.890;2023-04-08T12:29:22;19.40;99.90
21648;DHT22;10985;54.182;7.890;2023-04-08T12:31:47;19.40;99.90
21648;DHT22;10985;54.182;7.890;2023-04-08T12:34:13;19.30;99.90
21648;DHT22;10985;54.182;7.890;2023-04-08T12:36:38;19.30;99.90
21648;DHT22;10985;54.182;7.890;2023-04-08T12:39:04;19.20;99.90
21648;DHT22;10985;54.182;7.890;2023-04-08T12:41:29;19.20;99.90
21648;DHT22;10985;54.182;7.890;2023-04-08T12:43:55;19.10;99.90
21648;DHT22;10985;54.182;7.890;2023-04-08T12:46:21;19.00;99.90
21648;DHT22;10985;54.182;7.890;2023-04-08T12:48:47;18.90;99.90
21648;DHT22;10985;54.182;7.890;2023-04-08T12:51:12;18.90;99.90
21648;DHT22;10985;54.182;7.890;2023-04-08T12:53:38;18.80;99.90
21648;DHT22;10985;54.182;7.890;2023-04-08T12:56:04;18.70;99.90
21648;DHT22;10985;54.182;7.890;2023-04-08T12:58:29;18.80;99.90
21648;DHT22;10985;54.182;7.890;2023-04-08T13:00:55;18.90;99.90
21648;DHT22;10985;54.182;7.890;2023-04-08T13:03:20;19.20;99.90
21648;DHT22;10985;54.182;7.890;2023-04-08T13:05:46;19.30;99.90
21648;DHT22;10985;54.182;7.890;2023-04-08T13:08:11;19.30;99.90
21648;DHT22;10985;54.182;7.890;2023-04-08T13:10:37;19.40;99.90
21648;DHT22;10985;54.182;7.890;2023-04-08T13:13:03;19.30;99.90
21648;DHT22;10985;54.182;7.890;2023-04-08T13:15:28;19.30;99.90
21648;DHT22;10985;54.182;7.890;2023-04-08T13:17:54;19.20;99.90
21648;DHT22;10985;54.182;7.890;2023-04-08T13:20:20;19.20;99.90
21648;DHT22;10985;54.182;7.890;2023-04-08T13:22:50;19.10;99.90
21648;DHT22;10985;54.182;7.890;2023-04-08T13:25:15;19.00;99.90
21648;DHT22;10985;54.182;7.890;2023-04-08T13:27:41;19.10;99.90
21648;DHT22;10985;54.182;7.890;2023-04-08T13:30:07;19.00;99.90
21648;DHT22;10985;54.182;7.890;2023-04-08T13:32:32;19.00;99.90
21648;DHT22;10985;54.182;7.890;2023-04-08T13:34:58;18.90;99.90
21648;DHT22;10985;54.182;7.890;2023-04-08T13:37:23;18.90;99.90
21648;DHT22;10985;54.182;7.890;2023-04-08T13:39:49;18.80;99.90
21648;DHT22;10985;54.182;7.890;2023-04-08T13:42:14;18.70;99.90
21648;DHT22;10985;54.182;7.890;2023-04-08T13:44:40;18.50;99.90
21648;DHT22;10985;54.182;7.890;2023-04-08T13:47:06;18.30;99.90
21648;DHT22;10985;54.182;7.890;2023-04-08T13:49:31;18.10;99.90
21648;DHT22;10985;54.182;7.890;2023-04-08T13:51:57;17.90;99.90
21648;DHT22;10985;54.182;7.890;2023-04-08T13:54:22;17.70;99.90
21648;DHT22;10985;54.182;7.890;2023-04-08T13:56:48;17.40;99.90
21648;DHT22;10985;54.182;7.890;2023-04-08T13:59:13;17.20;99.90
21648;DHT22;10985;54.182;7.890;2023-04-08T14:01:39;17.00;99.90
21648;DHT22;10985;54.182;7.890;2023-04-08T14:04:05;16.70;99.90
21648;DHT22;10985;54.182;7.890;2023-04-08T14:06:30;16.50;99.90
21648;DHT22;10985;54.182;7.890;2023-04-08T14:08:56;16.30;99.90
21648;DHT22;10985;54.182;7.890;2023-04-08T14:11:22;16.10;99.90
21648;DHT22;10985;54.182;7.890;2023-04-08T14:13:47;15.90;99.90
21648;DHT22;10985;54.182;7.890;2023-04-08T14:16:13;15.70;99.90
21648;DHT22;10985;54.182;7.890;2023-04-08T14:18:39;15.50;99.90
21648;DHT22;10985;54.182;7.890;2023-04-08T14:21:05;15.30;99.90
21648;DHT22;10985;54.182;7.890;2023-04-08T14:23:31;15.10;99.90
21648;DHT22;10985;54.182;7.890;2023-04-08T14:25:57;15.00;99.90
21648;DHT22;10985;54.182;7.890;2023-04-08T14:28:22;14.80;99.90
21648;DHT22;10985;54.182;7.890;2023-04-08T14:30:48;14.70;99.90
21648;DHT22;10985;54.182;7.890;2023-04-08T14:33:13;14.60;99.90
21648;DHT22;10985;54.182;7.890;2023-04-08T14:35:39;14.40;99.90
21648;DHT22;10985;54.182;7.890;2023-04-08T14:38:04;14.20;99.90
21648;DHT22;10985;54.182;7.890;2023-04-08T14:40:30;14.10;99.90
21648;DHT22;10985;54.182;7.890;2023-04-08T14:42:55;14.00;99.90
21648;DHT22;10985;54.182;7.890;2023-04-08T14:45:21;13.90;99.90
21648;DHT22;10985;54.182;7.890;2023-04-08T14:47:46;13.80;99.90
21648;DHT22;10985;54.182;7.890;2023-04-08T14:50:12;13.70;99.90
21648;DHT22;10985;54.182;7.890;2023-04-08T14:52:37;13.50;99.90
21648;DHT22;10985;54.182;7.890;2023-04-08T14:55:03;13.50;99.90
21648;DHT22;10985;54.182;7.890;2023-04-08T14:57:28;13.40;99.90
21648;DHT22;10985;54.182;7.890;2023-04-08T14:59:54;13.30;99.90
21648;DHT22;10985;54.182;7.890;2023-04-08T15:02:20;13.20;99.90
21648;DHT22;10985;54.182;7.890;2023-04-08T15:04:45;13.20;99.90
21648;DHT22;10985;54.182;7.890;2023-04-08T15:07:11;13.10;99.90
21648;DHT22;10985;54.182;7.890;2023-04-08T15:09:37;13.00;99.90
21648;DHT22;10985;54.182;7.890;2023-04-08T15:12:02;13.00;99.90
21648;DHT22;10985;54.182;7.890;2023-04-08T15:14:28;12.90;99.90
21648;DHT22;10985;54.182;7.890;2023-04-08T15:16:53;12.80;99.90
21648;DHT22;10985;54.182;7.890;2023-04-08T15:19:18;12.80;99.90
21648;DHT22;10985;54.182;7.890;2023-04-08T15:21:44;12.80;99.90
21648;DHT22;10985;54.182;7.890;2023-04-08T15:24:10;12.70;99.90
21648;DHT22;10985;54.182;7.890;2023-04-08T15:26:35;12.70;99.90
21648;DHT22;10985;54.182;7.890;2023-04-08T15:29:01;12.60;99.90
21648;DHT22;10985;54.182;7.890;2023-04-08T15:31:28;12.60;99.90
21648;DHT22;10985;54.182;7.890;2023-04-08T15:33:54;12.50;99.90
21648;DHT22;10985;54.182;7.890;2023-04-08T15:36:20;12.50;99.90
21648;DHT22;10985;54.182;7.890;2023-04-08T15:38:46;12.50;99.90
21648;DHT22;10985;54.182;7.890;2023-04-08T15:41:18;12.40;99.90
21648;DHT22;10985;54.182;7.890;2023-04-08T15:43:44;12.30;99.90
21648;DHT22;10985;54.182;7.890;2023-04-08T15:46:10;12.30;99.90
21648;DHT22;10985;54.182;7.890;2023-04-08T15:48:36;12.30;99.90
21648;DHT22;10985;54.182;7.890;2023-04-08T15:51:08;12.30;99.90
21648;DHT22;10985;54.182;7.890;2023-04-08T15:53:33;12.30;99.90
21648;DHT22;10985;54.182;7.890;2023-04-08T15:55:59;12.30;99.90
21648;DHT22;10985;54.182;7.890;2023-04-08T15:58:25;12.20;99.90
21648;DHT22;10985;54.182;7.890;2023-04-08T16:00:51;12.20;99.90